createdAt,value
2022-12-26T00:01:00.226Z,88.30
2022-12-26T00:02:02.994Z,88.39
2022-12-26T00:03:07.639Z,88.47
2022-12-26T00:04:51.707Z,88.31
2022-12-26T00:05:36.830Z,88.30
2022-12-26T00:06:38.957Z,88.24
2022-12-26T00:07:42.067Z,88.46
2022-12-26T00:08:44.675Z,88.52
2022-12-26T00:09:47.967Z,88.49
2022-12-26T00:10:51.506Z,88.16
2022-12-26T00:11:54.661Z,88.47
2022-12-26T00:12:56.778Z,88.21
2022-12-26T00:14:19.854Z,88.49
2022-12-26T00:15:22.067Z,88.21
2022-12-26T00:16:26.499Z,88.23
2022-12-26T00:17:28.668Z,88.31
2022-12-26T00:18:31.749Z,88.31
2022-12-26T00:19:33.943Z,88.51
2022-12-26T00:20:37.200Z,88.26
2022-12-26T00:21:39.423Z,88.47
2022-12-26T00:22:42.686Z,88.41
2022-12-26T00:23:45.887Z,88.42
2022-12-26T00:24:49.252Z,88.34
2022-12-26T00:25:52.866Z,88.43
2022-12-26T00:26:56.401Z,88.55
2022-12-26T00:27:58.681Z,88.52
2022-12-26T00:29:02.297Z,88.62
2022-12-26T00:30:05.364Z,88.39
2022-12-26T00:31:11.126Z,88.39
2022-12-26T00:32:14.726Z,88.37
2022-12-26T00:33:16.913Z,88.56
2022-12-26T00:34:20.147Z,88.62
2022-12-26T00:35:24.592Z,88.46
2022-12-26T00:36:30.478Z,88.49
2022-12-26T00:37:32.815Z,88.70
2022-12-26T00:38:37.104Z,88.65
2022-12-26T00:39:40.303Z,88.72
2022-12-26T00:40:43.524Z,88.75
2022-12-26T00:41:48.986Z,88.53
2022-12-26T00:42:51.425Z,88.70
2022-12-26T00:43:56.077Z,88.50
2022-12-26T00:44:59.688Z,88.67
2022-12-26T00:46:03.357Z,88.49
2022-12-26T00:47:05.685Z,88.64
2022-12-26T00:48:08.954Z,88.48
2022-12-26T00:49:12.152Z,88.49
2022-12-26T00:50:15.879Z,88.50
2022-12-26T00:51:19.757Z,88.71
2022-12-26T00:52:22.103Z,88.52
2022-12-26T00:53:27.233Z,88.71
2022-12-26T00:54:32.160Z,88.54
2022-12-26T00:55:34.391Z,88.75
2022-12-26T00:56:37.596Z,88.47
2022-12-26T00:57:41.189Z,88.60
2022-12-26T00:58:44.617Z,88.63
2022-12-26T00:59:46.789Z,88.72
2022-12-26T01:00:50.415Z,88.50
2022-12-26T01:01:52.843Z,88.66
2022-12-26T01:02:56.319Z,88.75
2022-12-26T01:03:58.940Z,88.46
2022-12-26T01:05:02.111Z,88.73
2022-12-26T01:06:05.415Z,88.66
2022-12-26T01:07:08.619Z,88.70
2022-12-26T01:08:23.020Z,88.65
2022-12-26T01:09:27.563Z,88.84
2022-12-26T01:10:29.761Z,88.90
2022-12-26T01:11:42.318Z,88.82
2022-12-26T01:12:46.161Z,88.63
2022-12-26T01:13:50.126Z,88.63
2022-12-26T01:14:52.418Z,88.67
2022-12-26T01:15:55.740Z,88.77
2022-12-26T01:16:58.115Z,88.72
2022-12-26T01:18:01.825Z,88.70
2022-12-26T01:19:04.559Z,88.63
2022-12-26T01:20:08.336Z,88.85
2022-12-26T01:21:11.427Z,88.60
2022-12-26T01:22:14.648Z,88.64
2022-12-26T01:23:18.621Z,88.74
2022-12-26T01:24:20.864Z,88.75
2022-12-26T01:25:24.611Z,88.67
2022-12-26T01:26:26.827Z,88.94
2022-12-26T01:27:30.555Z,88.73
2022-12-26T01:28:35.247Z,88.81
2022-12-26T01:29:37.578Z,88.80
2022-12-26T01:30:40.777Z,88.80
2022-12-26T01:31:43.045Z,88.80
2022-12-26T01:32:46.408Z,89.06
2022-12-26T01:33:49.057Z,89.02
2022-12-26T01:34:55.396Z,89.02
2022-12-26T01:35:57.863Z,88.93
2022-12-26T01:37:01.074Z,88.87
2022-12-26T01:38:03.262Z,88.85
2022-12-26T01:39:06.533Z,89.18
2022-12-26T01:40:11.638Z,89.14
2022-12-26T01:41:21.081Z,88.93
2022-12-26T01:42:25.317Z,89.04
2022-12-26T01:43:28.517Z,88.93
2022-12-26T01:44:59.442Z,89.09
2022-12-26T01:46:02.777Z,89.03
2022-12-26T01:47:06.959Z,89.17
2022-12-26T01:48:18.921Z,89.25
2022-12-26T01:49:36.266Z,89.14
2022-12-26T01:50:45.212Z,88.93
2022-12-26T01:51:52.686Z,89.06
2022-12-26T01:52:57.665Z,88.98
2022-12-26T01:54:40.647Z,89.11
2022-12-26T01:55:25.126Z,89.26
2022-12-26T01:56:32.430Z,89.17
2022-12-26T01:57:41.709Z,89.31
2022-12-26T01:58:50.013Z,89.06
2022-12-26T01:59:53.788Z,89.24
2022-12-26T02:00:57.636Z,89.20
2022-12-26T02:02:01.921Z,89.26
2022-12-26T02:03:24.472Z,89.27
2022-12-26T02:04:49.448Z,89.10
2022-12-26T02:05:54.606Z,89.18
2022-12-26T02:06:58.543Z,89.31
2022-12-26T02:08:04.224Z,89.36
2022-12-26T02:09:07.414Z,89.06
2022-12-26T02:10:15.137Z,89.29
2022-12-26T02:11:23.815Z,89.29
2022-12-26T02:12:34.529Z,89.20
2022-12-26T02:13:42.000Z,89.34
2022-12-26T02:14:44.546Z,89.42
2022-12-26T02:15:48.634Z,89.30
2022-12-26T02:16:52.314Z,89.44
2022-12-26T02:17:55.569Z,89.37
2022-12-26T02:18:57.760Z,89.39
2022-12-26T02:20:11.215Z,89.34
2022-12-26T02:21:41.634Z,89.26
2022-12-26T02:23:20.805Z,89.58
2022-12-26T02:24:43.423Z,89.38
2022-12-26T02:26:25.157Z,89.57
2022-12-26T02:27:48.138Z,89.59
2022-12-26T02:29:12.382Z,89.42
2022-12-26T02:30:45.851Z,89.44
2022-12-26T02:31:58.777Z,89.67
2022-12-26T02:33:21.967Z,89.39
2022-12-26T02:34:29.100Z,89.44
2022-12-26T02:35:45.648Z,89.42
2022-12-26T02:37:04.066Z,89.37
2022-12-26T02:38:20.144Z,89.49
2022-12-26T02:39:45.015Z,89.42
2022-12-26T02:40:58.250Z,89.42
2022-12-26T02:42:09.970Z,89.45
2022-12-26T02:43:21.542Z,89.55
2022-12-26T02:44:48.628Z,89.77
2022-12-26T02:46:21.475Z,89.84
2022-12-26T02:47:32.150Z,89.76
2022-12-26T02:48:41.180Z,89.77
2022-12-26T02:50:31.700Z,89.75
2022-12-26T02:52:06.931Z,89.62
2022-12-26T02:53:37.733Z,89.62
2022-12-26T02:55:04.632Z,89.55
2022-12-26T02:56:32.078Z,89.77
2022-12-26T02:57:58.804Z,89.62
2022-12-26T02:59:54.465Z,89.68
2022-12-26T03:01:16.707Z,89.67
2022-12-26T03:02:44.412Z,89.68
2022-12-26T03:04:08.726Z,89.51
2022-12-26T03:05:35.376Z,89.69
2022-12-26T03:07:00.147Z,89.78
2022-12-26T03:08:24.606Z,89.80
2022-12-26T03:09:48.284Z,89.75
2022-12-26T03:11:10.712Z,89.73
2022-12-26T03:12:48.560Z,89.60
2022-12-26T03:13:53.121Z,89.62
2022-12-26T03:15:01.187Z,89.78
2022-12-26T03:16:27.288Z,89.69
2022-12-26T03:17:33.908Z,89.76
2022-12-26T03:18:57.813Z,89.61
2022-12-26T03:20:07.312Z,89.88
2022-12-26T03:21:12.167Z,89.62
2022-12-26T03:22:29.193Z,89.72
2022-12-26T03:23:33.499Z,89.84
2022-12-26T03:25:00.043Z,89.87
2022-12-26T03:26:27.932Z,89.80
2022-12-26T03:27:30.156Z,89.95
2022-12-26T03:28:33.507Z,89.64
2022-12-26T03:29:53.990Z,89.76
2022-12-26T03:30:59.587Z,89.83
2022-12-26T03:32:05.338Z,89.90
2022-12-26T03:33:29.666Z,89.87
2022-12-26T03:34:32.511Z,89.77
2022-12-26T03:35:34.958Z,89.75
2022-12-26T03:36:50.443Z,89.92
2022-12-26T03:37:55.524Z,89.78
2022-12-26T03:39:07.972Z,89.86
2022-12-26T03:40:59.064Z,89.87
2022-12-26T03:42:28.750Z,89.63
2022-12-26T03:44:06.959Z,89.77
2022-12-26T03:45:41.180Z,89.80
2022-12-26T03:47:13.125Z,89.92
2022-12-26T03:48:42.934Z,89.88
2022-12-26T03:50:06.344Z,89.91
2022-12-26T03:51:35.681Z,89.90
2022-12-26T03:53:04.825Z,89.88
2022-12-26T03:54:32.882Z,89.71
2022-12-26T03:55:59.712Z,89.73
2022-12-26T03:57:30.603Z,89.98
2022-12-26T03:59:00.567Z,89.90
2022-12-26T04:00:24.670Z,89.90
2022-12-26T04:01:49.311Z,90.00
2022-12-26T04:03:14.138Z,89.80
2022-12-26T04:04:39.428Z,89.90
2022-12-26T04:06:03.627Z,89.72
2022-12-26T04:07:27.651Z,89.90
2022-12-26T04:08:59.739Z,89.77
2022-12-26T04:10:24.451Z,89.90
2022-12-26T04:11:45.954Z,89.68
2022-12-26T04:13:08.555Z,89.74
2022-12-26T04:14:37.309Z,89.64
2022-12-26T04:16:02.823Z,89.81
2022-12-26T04:17:31.463Z,89.84
2022-12-26T04:18:57.506Z,89.74
2022-12-26T04:20:10.580Z,89.74
2022-12-26T04:21:42.132Z,89.64
2022-12-26T04:23:08.321Z,89.95
2022-12-26T04:24:34.271Z,89.92
2022-12-26T04:26:01.677Z,89.75
2022-12-26T04:27:26.395Z,89.80
2022-12-26T04:28:47.040Z,89.83
2022-12-26T04:30:08.083Z,89.91
2022-12-26T04:31:34.870Z,89.79
2022-12-26T04:33:01.195Z,90.00
2022-12-26T04:34:26.305Z,89.65
2022-12-26T04:35:54.922Z,89.88
2022-12-26T04:37:27.602Z,89.76
2022-12-26T04:38:52.618Z,89.77
2022-12-26T04:40:14.973Z,89.99
2022-12-26T04:41:37.670Z,89.98
2022-12-26T04:43:02.013Z,89.96
2022-12-26T04:44:26.712Z,89.79
2022-12-26T04:45:29.029Z,89.97
2022-12-26T04:46:34.419Z,89.80
2022-12-26T04:47:36.801Z,89.85
2022-12-26T04:49:02.377Z,89.96
2022-12-26T04:50:12.470Z,89.92
2022-12-26T04:51:16.978Z,89.95
2022-12-26T04:52:19.094Z,89.96
2022-12-26T04:53:23.113Z,90.02
2022-12-26T04:54:25.806Z,89.82
2022-12-26T04:55:31.509Z,89.92
2022-12-26T04:56:33.759Z,90.05
2022-12-26T04:57:36.866Z,89.79
2022-12-26T04:58:38.975Z,89.84
2022-12-26T04:59:42.228Z,89.83
2022-12-26T05:00:44.912Z,89.85
2022-12-26T05:02:06.831Z,89.97
2022-12-26T05:03:29.431Z,89.97
2022-12-26T05:04:50.074Z,89.87
2022-12-26T05:06:11.143Z,89.78
2022-12-26T05:07:36.696Z,89.97
2022-12-26T05:09:00.021Z,90.08
2022-12-26T05:10:04.588Z,89.84
2022-12-26T05:11:06.710Z,90.03
2022-12-26T05:12:11.168Z,89.95
2022-12-26T05:13:13.348Z,90.05
2022-12-26T05:14:18.852Z,89.90
2022-12-26T05:15:21.936Z,90.11
2022-12-26T05:16:43.953Z,89.92
2022-12-26T05:18:04.522Z,89.84
2022-12-26T05:19:25.496Z,90.13
2022-12-26T05:20:45.518Z,90.19
2022-12-26T05:22:06.305Z,89.97
2022-12-26T05:23:35.169Z,90.00
2022-12-26T05:24:58.254Z,90.22
2022-12-26T05:26:19.529Z,90.03
2022-12-26T05:27:40.272Z,90.04
2022-12-26T05:28:43.538Z,89.94
2022-12-26T05:29:45.681Z,90.14
2022-12-26T05:30:48.872Z,90.02
2022-12-26T05:31:51.088Z,89.92
2022-12-26T05:33:11.898Z,90.03
2022-12-26T05:34:17.522Z,90.21
2022-12-26T05:35:20.151Z,90.05
2022-12-26T05:36:27.079Z,90.10
2022-12-26T05:37:29.237Z,90.08
2022-12-26T05:38:33.788Z,90.18
2022-12-26T05:39:35.917Z,90.21
2022-12-26T05:40:39.056Z,90.03
2022-12-26T05:41:42.243Z,90.20
2022-12-26T05:42:44.384Z,90.22
2022-12-26T05:43:47.520Z,90.05
2022-12-26T05:44:49.701Z,90.14
2022-12-26T05:45:52.849Z,90.01
2022-12-26T05:46:55.045Z,90.20
2022-12-26T05:47:59.943Z,90.25
2022-12-26T05:49:03.325Z,90.00
2022-12-26T05:50:06.194Z,89.93
2022-12-26T05:51:09.396Z,90.08
2022-12-26T05:52:11.529Z,89.89
2022-12-26T05:53:14.766Z,90.13
2022-12-26T05:54:18.344Z,89.92
2022-12-26T05:55:21.451Z,90.21
2022-12-26T05:56:24.039Z,90.11
2022-12-26T05:57:27.230Z,90.00
2022-12-26T05:58:29.398Z,89.95
2022-12-26T05:59:32.570Z,90.21
2022-12-26T06:00:34.757Z,89.97
2022-12-26T06:01:38.013Z,90.23
2022-12-26T06:02:40.380Z,90.08
2022-12-26T06:03:44.894Z,90.18
2022-12-26T06:04:46.983Z,90.02
2022-12-26T06:05:50.116Z,90.14
2022-12-26T06:06:56.252Z,90.17
2022-12-26T06:07:59.439Z,90.13
2022-12-26T06:09:01.596Z,90.26
2022-12-26T06:10:07.517Z,90.22
2022-12-26T06:11:11.861Z,90.16
2022-12-26T06:12:15.018Z,90.10
2022-12-26T06:13:17.146Z,90.26
2022-12-26T06:14:20.282Z,90.08
2022-12-26T06:15:22.432Z,90.19
2022-12-26T06:16:25.680Z,90.14
2022-12-26T06:17:28.108Z,90.18
2022-12-26T06:18:31.254Z,90.26
2022-12-26T06:19:33.390Z,90.27
2022-12-26T06:20:39.938Z,90.11
2022-12-26T06:21:42.043Z,90.18
2022-12-26T06:22:45.192Z,90.20
2022-12-26T06:23:47.477Z,90.26
2022-12-26T06:24:50.574Z,90.18
2022-12-26T06:25:57.453Z,90.13
2022-12-26T06:27:00.584Z,90.14
2022-12-26T06:28:02.781Z,90.11
2022-12-26T06:29:05.884Z,90.16
2022-12-26T06:30:09.037Z,90.28
2022-12-26T06:31:15.250Z,90.18
2022-12-26T06:32:17.438Z,90.20
2022-12-26T06:33:21.614Z,90.05
2022-12-26T06:34:24.249Z,90.31
2022-12-26T06:35:27.511Z,90.00
2022-12-26T06:36:30.096Z,90.08
2022-12-26T06:37:34.430Z,90.08
2022-12-26T06:38:37.113Z,90.18
2022-12-26T06:39:40.313Z,90.06
2022-12-26T06:40:42.932Z,89.99
2022-12-26T06:41:48.775Z,90.14
2022-12-26T06:42:50.942Z,90.23
2022-12-26T06:43:54.566Z,90.17
2022-12-26T06:44:56.745Z,89.90
2022-12-26T06:46:01.173Z,90.22
2022-12-26T06:47:03.383Z,90.04
2022-12-26T06:48:06.950Z,90.02
2022-12-26T06:49:09.109Z,90.13
2022-12-26T06:50:12.263Z,90.13
2022-12-26T06:51:16.114Z,89.96
2022-12-26T06:52:19.566Z,89.99
2022-12-26T06:53:22.324Z,90.16
2022-12-26T06:54:25.429Z,90.11
2022-12-26T06:55:27.546Z,90.08
2022-12-26T06:56:31.715Z,89.95
2022-12-26T06:57:35.246Z,90.06
2022-12-26T06:58:38.889Z,90.02
2022-12-26T06:59:41.095Z,90.24
2022-12-26T07:00:44.547Z,89.95
2022-12-26T07:01:46.963Z,89.92
2022-12-26T07:02:53.048Z,89.97
2022-12-26T07:03:55.913Z,89.98
2022-12-26T07:04:59.047Z,90.06
2022-12-26T07:06:04.302Z,90.11
2022-12-26T07:07:07.578Z,90.06
2022-12-26T07:08:09.777Z,90.03
2022-12-26T07:09:15.060Z,89.88
2022-12-26T07:10:17.425Z,89.86
2022-12-26T07:11:22.596Z,90.11
2022-12-26T07:12:24.770Z,90.08
2022-12-26T07:13:29.564Z,89.83
2022-12-26T07:14:31.689Z,89.90
2022-12-26T07:15:34.832Z,90.13
2022-12-26T07:16:37.793Z,89.88
2022-12-26T07:17:41.029Z,90.16
2022-12-26T07:18:43.161Z,90.08
2022-12-26T07:19:46.322Z,89.84
2022-12-26T07:20:48.468Z,89.92
2022-12-26T07:21:51.635Z,90.12
2022-12-26T07:22:54.919Z,90.10
2022-12-26T07:23:58.577Z,89.88
2022-12-26T07:25:00.743Z,90.14
2022-12-26T07:26:04.032Z,90.08
2022-12-26T07:27:06.182Z,89.92
2022-12-26T07:28:09.352Z,89.90
2022-12-26T07:29:13.588Z,89.82
2022-12-26T07:30:16.796Z,90.06
2022-12-26T07:31:20.220Z,89.90
2022-12-26T07:32:23.434Z,89.99
2022-12-26T07:33:25.713Z,90.03
2022-12-26T07:34:31.676Z,90.06
2022-12-26T07:35:35.324Z,89.72
2022-12-26T07:36:38.633Z,89.93
2022-12-26T07:37:40.785Z,89.80
2022-12-26T07:38:44.358Z,89.75
2022-12-26T07:39:46.495Z,89.84
2022-12-26T07:40:49.659Z,89.97
2022-12-26T07:41:59.481Z,90.02
2022-12-26T07:43:02.707Z,89.85
2022-12-26T07:44:06.161Z,89.84
2022-12-26T07:45:11.417Z,89.80
2022-12-26T07:46:13.601Z,89.73
2022-12-26T07:47:17.051Z,89.81
2022-12-26T07:48:19.207Z,89.92
2022-12-26T07:49:22.411Z,90.05
2022-12-26T07:50:26.021Z,89.72
2022-12-26T07:51:29.386Z,89.65
2022-12-26T07:52:31.506Z,89.67
2022-12-26T07:53:34.757Z,89.96
2022-12-26T07:54:37.943Z,89.82
2022-12-26T07:55:40.267Z,89.72
2022-12-26T07:56:43.906Z,89.82
2022-12-26T07:57:50.187Z,89.81
2022-12-26T07:58:53.727Z,89.66
2022-12-26T07:59:56.032Z,89.77
2022-12-26T08:01:03.486Z,89.97
2022-12-26T08:02:06.217Z,89.72
2022-12-26T08:03:10.861Z,89.65
2022-12-26T08:04:14.125Z,89.83
2022-12-26T08:05:17.805Z,89.63
2022-12-26T08:06:20.109Z,89.56
2022-12-26T08:07:23.504Z,89.59
2022-12-26T08:08:25.714Z,89.80
2022-12-26T08:09:28.932Z,89.59
2022-12-26T08:10:31.084Z,89.82
2022-12-26T08:11:36.003Z,89.54
2022-12-26T08:12:38.178Z,89.57
2022-12-26T08:13:41.258Z,89.51
2022-12-26T08:14:43.538Z,89.42
2022-12-26T08:15:46.697Z,89.56
2022-12-26T08:16:53.377Z,89.63
2022-12-26T08:17:57.009Z,89.48
2022-12-26T08:18:59.194Z,89.60
2022-12-26T08:20:02.390Z,89.30
2022-12-26T08:21:05.062Z,89.29
2022-12-26T08:22:08.216Z,89.39
2022-12-26T08:23:10.495Z,89.41
2022-12-26T08:24:15.120Z,89.41
2022-12-26T08:25:20.198Z,89.44
2022-12-26T08:26:25.543Z,89.32
2022-12-26T08:27:27.638Z,89.44
2022-12-26T08:28:30.720Z,89.44
2022-12-26T08:29:33.941Z,89.31
2022-12-26T08:30:38.539Z,89.40
2022-12-26T08:31:41.839Z,89.26
2022-12-26T08:32:46.448Z,89.36
2022-12-26T08:33:50.079Z,89.43
2022-12-26T08:34:52.236Z,89.36
2022-12-26T08:35:55.429Z,89.39
2022-12-26T08:36:59.378Z,89.48
2022-12-26T08:38:01.589Z,89.21
2022-12-26T08:39:04.836Z,89.25
2022-12-26T08:40:08.827Z,89.24
2022-12-26T08:41:11.992Z,89.26
2022-12-26T08:42:14.110Z,89.18
2022-12-26T08:44:40.624Z,89.27
2022-12-26T08:45:42.795Z,89.14
2022-12-26T08:46:46.585Z,89.21
2022-12-26T08:47:50.145Z,89.13
2022-12-26T08:48:53.309Z,89.08
2022-12-26T08:49:55.577Z,88.89
2022-12-26T08:51:01.842Z,88.95
2022-12-26T08:52:05.336Z,88.89
2022-12-26T08:53:07.486Z,88.90
2022-12-26T08:54:10.589Z,88.96
2022-12-26T08:55:13.668Z,88.95
2022-12-26T08:56:19.015Z,88.91
2022-12-26T08:57:21.169Z,89.04
2022-12-26T08:58:26.764Z,88.85
2022-12-26T08:59:30.048Z,88.90
2022-12-26T09:00:32.165Z,88.87
2022-12-26T09:01:35.402Z,88.74
2022-12-26T09:02:37.749Z,88.58
2022-12-26T09:03:43.652Z,88.77
2022-12-26T09:04:46.813Z,88.65
2022-12-26T09:05:49.100Z,88.72
2022-12-26T09:06:52.235Z,88.63
2022-12-26T09:07:54.396Z,88.65
2022-12-26T09:08:57.579Z,88.63
2022-12-26T09:09:59.756Z,88.48
2022-12-26T09:11:04.798Z,88.80
2022-12-26T09:12:07.115Z,88.72
2022-12-26T09:13:10.251Z,88.56
2022-12-26T09:14:13.645Z,88.65
2022-12-26T09:15:16.091Z,88.68
2022-12-26T09:16:21.681Z,88.80
2022-12-26T09:17:26.291Z,88.42
2022-12-26T09:18:31.694Z,88.47
2022-12-26T09:19:35.241Z,88.62
2022-12-26T09:20:38.314Z,88.57
2022-12-26T09:21:40.613Z,88.36
2022-12-26T09:22:51.477Z,88.44
2022-12-26T09:23:58.399Z,88.39
2022-12-26T09:25:00.587Z,88.42
2022-12-26T09:26:08.257Z,88.31
2022-12-26T09:27:10.863Z,88.37
2022-12-26T09:28:14.030Z,88.08
2022-12-26T09:29:16.200Z,88.16
2022-12-26T09:30:19.525Z,88.23
2022-12-26T09:31:24.939Z,88.08
2022-12-26T09:32:27.130Z,87.80
2022-12-26T09:33:30.777Z,88.16
2022-12-26T09:34:33.074Z,87.91
2022-12-26T09:35:40.831Z,88.07
2022-12-26T09:36:43.997Z,87.77
2022-12-26T09:37:46.322Z,88.00
2022-12-26T09:38:50.663Z,87.99
2022-12-26T09:39:53.087Z,87.83
2022-12-26T09:41:09.528Z,87.77
2022-12-26T09:42:21.275Z,87.75
2022-12-26T09:43:32.087Z,87.90
2022-12-26T09:44:43.250Z,87.80
2022-12-26T09:45:55.350Z,87.72
2022-12-26T09:47:12.673Z,87.86
2022-12-26T09:48:21.748Z,87.69
2022-12-26T09:49:29.905Z,87.48
2022-12-26T09:50:37.156Z,87.55
2022-12-26T09:51:50.130Z,87.51
2022-12-26T09:52:56.216Z,87.60
2022-12-26T09:54:02.773Z,87.55
2022-12-26T09:55:17.270Z,87.38
2022-12-26T09:57:52.666Z,87.33
2022-12-26T09:58:59.711Z,87.37
2022-12-26T10:00:06.713Z,87.20
2022-12-26T10:01:18.162Z,87.24
2022-12-26T10:02:22.984Z,87.53
2022-12-26T10:03:26.508Z,87.36
2022-12-26T10:04:30.528Z,87.49
2022-12-26T10:05:39.923Z,87.40
2022-12-26T10:06:50.518Z,87.26
2022-12-26T10:07:59.860Z,87.20
2022-12-26T10:09:23.577Z,87.07
2022-12-26T10:10:32.392Z,86.93
2022-12-26T10:11:52.531Z,87.07
2022-12-26T10:13:01.684Z,86.88
2022-12-26T10:14:19.580Z,86.90
2022-12-26T10:15:39.699Z,86.82
2022-12-26T10:16:50.928Z,86.91
2022-12-26T10:18:01.192Z,86.76
2022-12-26T10:19:15.309Z,86.78
2022-12-26T10:20:26.018Z,86.77
2022-12-26T10:21:35.036Z,86.59
2022-12-26T10:23:00.526Z,86.62
2022-12-26T10:24:10.240Z,86.40
2022-12-26T10:25:17.437Z,86.54
2022-12-26T10:26:24.233Z,86.38
2022-12-26T10:27:31.600Z,86.29
2022-12-26T10:28:46.186Z,86.25
2022-12-26T10:29:52.365Z,86.14
2022-12-26T10:30:59.794Z,86.24
2022-12-26T10:32:07.128Z,86.13
2022-12-26T10:33:15.761Z,86.16
2022-12-26T10:34:21.648Z,86.03
2022-12-26T10:35:31.482Z,86.19
2022-12-26T10:36:38.342Z,86.08
2022-12-26T10:37:42.334Z,86.08
2022-12-26T10:38:48.271Z,86.13
2022-12-26T10:39:56.561Z,86.26
2022-12-26T10:41:06.253Z,86.21
2022-12-26T10:42:14.885Z,86.02
2022-12-26T10:43:28.744Z,86.11
2022-12-26T10:44:32.045Z,85.93
2022-12-26T10:45:43.393Z,86.05
2022-12-26T10:47:13.532Z,85.88
2022-12-26T10:48:18.223Z,85.82
2022-12-26T10:49:24.616Z,86.02
2022-12-26T10:50:30.114Z,85.84
2022-12-26T10:51:32.970Z,85.01
2022-12-26T10:52:39.979Z,85.43
2022-12-26T10:53:52.349Z,85.37
2022-12-26T10:55:29.373Z,85.40
2022-12-26T10:56:23.458Z,85.24
2022-12-26T10:57:29.900Z,85.04
2022-12-26T10:58:36.213Z,85.16
2022-12-26T10:59:45.071Z,85.19
2022-12-26T11:00:47.466Z,85.29
2022-12-26T11:01:51.862Z,85.17
2022-12-26T11:03:05.937Z,84.92
2022-12-26T11:04:31.117Z,84.54
2022-12-26T11:07:12.124Z,84.06
2022-12-26T11:08:19.408Z,84.19
2022-12-26T11:09:43.978Z,83.97
2022-12-26T11:11:03.227Z,83.68
2022-12-26T11:12:06.435Z,83.69
2022-12-26T11:13:21.147Z,83.75
2022-12-26T11:14:34.334Z,83.60
2022-12-26T11:15:41.906Z,83.50
2022-12-26T11:16:44.269Z,83.34
2022-12-26T11:17:51.673Z,83.21
2022-12-26T11:18:54.548Z,83.01
2022-12-26T11:20:22.485Z,83.12
2022-12-26T11:21:27.683Z,83.25
2022-12-26T11:22:30.392Z,83.15
2022-12-26T11:23:33.690Z,83.35
2022-12-26T11:24:35.951Z,83.15
2022-12-26T11:25:49.997Z,83.12
2022-12-26T11:26:53.469Z,83.04
2022-12-26T11:27:57.704Z,82.99
2022-12-26T11:29:09.174Z,82.59
2022-12-26T11:30:27.001Z,82.89
2022-12-26T11:31:32.232Z,82.73
2022-12-26T11:32:34.453Z,82.81
2022-12-26T11:33:42.864Z,82.69
2022-12-26T11:34:46.899Z,82.65
2022-12-26T11:35:53.757Z,82.61
2022-12-26T11:36:57.078Z,82.81
2022-12-26T11:37:59.388Z,82.50
2022-12-26T11:39:06.390Z,82.67
2022-12-26T11:40:17.814Z,82.65
2022-12-26T11:41:41.739Z,82.55
2022-12-26T11:42:50.378Z,82.72
2022-12-26T11:43:54.311Z,82.25
2022-12-26T11:45:03.902Z,82.36
2022-12-26T11:46:06.292Z,82.32
2022-12-26T11:47:11.897Z,82.17
2022-12-26T11:48:21.735Z,82.01
2022-12-26T11:49:30.042Z,82.05
2022-12-26T11:50:32.338Z,82.05
2022-12-26T11:51:43.462Z,81.75
2022-12-26T11:52:51.997Z,81.71
2022-12-26T11:54:19.374Z,81.57
2022-12-26T11:55:30.647Z,81.68
2022-12-26T11:56:35.197Z,81.42
2022-12-26T11:57:38.554Z,81.27
2022-12-26T11:58:41.217Z,81.34
2022-12-26T11:59:45.388Z,81.31
2022-12-26T12:01:17.485Z,81.08
2022-12-26T12:02:29.849Z,80.96
2022-12-26T12:03:36.893Z,81.05
2022-12-26T12:04:39.689Z,80.90
2022-12-26T12:05:51.748Z,81.05
2022-12-26T12:07:04.217Z,81.02
2022-12-26T12:08:39.325Z,81.20
2022-12-26T12:09:50.353Z,81.04
2022-12-26T12:11:06.940Z,81.20
2022-12-26T12:12:20.046Z,81.32
2022-12-26T12:13:38.257Z,81.36
2022-12-26T12:14:55.193Z,81.26
2022-12-26T12:16:09.138Z,81.25
2022-12-26T12:17:21.448Z,81.35
2022-12-26T12:18:38.352Z,81.22
2022-12-26T12:19:52.920Z,81.52
2022-12-26T12:21:03.723Z,81.73
2022-12-26T12:22:29.999Z,81.60
2022-12-26T12:23:48.630Z,81.88
2022-12-26T12:25:15.315Z,81.90
2022-12-26T12:26:30.435Z,82.05
2022-12-26T12:27:57.121Z,82.29
2022-12-26T12:29:18.892Z,82.46
2022-12-26T12:30:25.362Z,82.72
2022-12-26T12:31:40.122Z,82.63
2022-12-26T12:33:00.100Z,82.99
2022-12-26T12:34:16.196Z,82.99
2022-12-26T12:35:39.989Z,82.78
2022-12-26T12:36:59.089Z,83.27
2022-12-26T12:38:20.172Z,83.50
2022-12-26T12:39:41.779Z,83.21
2022-12-26T12:40:53.882Z,83.22
2022-12-26T12:42:09.115Z,83.29
2022-12-26T12:43:21.436Z,83.41
2022-12-26T12:44:32.431Z,83.47
2022-12-26T12:45:40.964Z,83.48
2022-12-26T12:47:06.755Z,83.56
2022-12-26T12:48:31.812Z,83.44
2022-12-26T12:49:55.457Z,83.36
2022-12-26T12:51:11.403Z,83.06
2022-12-26T12:52:28.063Z,82.85
2022-12-26T12:53:46.314Z,82.83
2022-12-26T12:55:14.905Z,82.40
2022-12-26T12:56:29.234Z,81.95
2022-12-26T12:57:38.804Z,81.55
2022-12-26T12:58:51.228Z,81.52
2022-12-26T13:00:12.642Z,81.50
2022-12-26T13:01:20.261Z,81.42
2022-12-26T13:02:29.461Z,81.04
2022-12-26T13:03:39.139Z,81.30
2022-12-26T13:04:45.588Z,81.31
2022-12-26T13:05:56.729Z,80.48
2022-12-26T13:07:04.545Z,79.42
2022-12-26T13:08:12.853Z,79.68
2022-12-26T13:09:20.068Z,79.29
2022-12-26T13:10:26.966Z,79.40
2022-12-26T13:11:35.966Z,79.25
2022-12-26T13:12:43.214Z,78.81
2022-12-26T13:13:53.947Z,78.86
2022-12-26T13:14:57.409Z,78.58
2022-12-26T13:16:04.532Z,78.51
2022-12-26T13:17:15.007Z,77.71
2022-12-26T13:18:22.904Z,75.84
2022-12-26T13:19:30.119Z,75.33
2022-12-26T13:20:41.883Z,74.13
2022-12-26T13:21:47.132Z,74.43
2022-12-26T13:23:21.235Z,74.20
2022-12-26T13:24:32.969Z,74.26
2022-12-26T13:25:44.366Z,73.85
2022-12-26T13:26:52.818Z,72.36
2022-12-26T13:28:09.491Z,71.32
2022-12-26T13:29:18.024Z,70.99
2022-12-26T13:30:20.425Z,70.85
2022-12-26T13:31:23.832Z,68.96
2022-12-26T13:32:28.853Z,68.58
2022-12-26T13:33:32.734Z,68.65
2022-12-26T13:34:36.939Z,68.37
2022-12-26T13:35:55.284Z,68.61
2022-12-26T13:37:00.577Z,68.65
2022-12-26T13:38:03.111Z,68.40
2022-12-26T13:39:37.834Z,68.57
2022-12-26T13:40:46.801Z,68.92
2022-12-26T13:42:12.007Z,69.09
2022-12-26T13:43:38.077Z,69.21
2022-12-26T13:44:42.968Z,69.36
2022-12-26T13:45:51.170Z,69.86
2022-12-26T13:46:59.481Z,69.83
2022-12-26T13:48:01.923Z,70.32
2022-12-26T13:49:05.624Z,70.93
2022-12-26T13:50:49.968Z,71.82
2022-12-26T13:52:00.138Z,72.04
2022-12-26T13:53:03.048Z,72.48
2022-12-26T13:54:12.056Z,72.93
2022-12-26T13:55:44.361Z,73.79
2022-12-26T13:57:17.149Z,74.66
2022-12-26T13:58:51.102Z,75.69
2022-12-26T14:00:09.447Z,75.72
2022-12-26T14:01:30.622Z,76.82
2022-12-26T14:03:18.582Z,77.06
2022-12-26T14:04:42.198Z,77.59
2022-12-26T14:05:58.037Z,78.20
2022-12-26T14:07:16.107Z,78.02
2022-12-26T14:08:33.287Z,78.40
2022-12-26T14:09:46.182Z,78.40
2022-12-26T14:11:01.058Z,78.77
2022-12-26T14:12:20.930Z,79.03
2022-12-26T14:13:48.657Z,79.56
2022-12-26T14:15:04.856Z,79.49
2022-12-26T14:16:19.561Z,79.99
2022-12-26T14:17:34.770Z,79.75
2022-12-26T14:18:48.867Z,79.80
2022-12-26T14:20:04.072Z,79.89
2022-12-26T14:21:30.126Z,79.78
2022-12-26T14:22:50.029Z,79.98
2022-12-26T14:24:04.964Z,79.52
2022-12-26T14:25:24.840Z,79.50
2022-12-26T14:26:43.378Z,78.84
2022-12-26T14:27:58.232Z,78.71
2022-12-26T14:29:15.180Z,78.71
2022-12-26T14:30:30.638Z,78.71
2022-12-26T14:31:47.993Z,78.76
2022-12-26T14:33:20.072Z,78.92
2022-12-26T14:34:34.614Z,78.93
2022-12-26T14:35:42.920Z,79.10
2022-12-26T14:36:50.230Z,79.09
2022-12-26T14:38:05.266Z,79.27
2022-12-26T14:39:25.608Z,79.17
2022-12-26T14:40:34.288Z,79.12
2022-12-26T14:42:33.318Z,78.94
2022-12-26T14:43:38.807Z,79.12
2022-12-26T14:44:43.451Z,79.00
2022-12-26T14:45:50.913Z,79.30
2022-12-26T14:47:01.381Z,79.38
2022-12-26T14:48:24.946Z,80.55
2022-12-26T14:49:39.740Z,80.67
2022-12-26T14:50:44.908Z,80.54
2022-12-26T14:51:48.293Z,80.70
2022-12-26T14:52:50.664Z,80.93
2022-12-26T14:54:32.534Z,81.25
2022-12-26T14:55:47.362Z,82.01
2022-12-26T14:56:51.708Z,81.71
2022-12-26T14:57:54.439Z,81.74
2022-12-26T14:59:31.692Z,82.29
2022-12-26T15:00:35.756Z,82.69
2022-12-26T15:01:49.445Z,82.71
2022-12-26T15:03:17.107Z,82.41
2022-12-26T15:04:57.875Z,82.45
2022-12-26T15:06:26.160Z,82.27
2022-12-26T15:08:07.972Z,82.45